Niko — D6DO6 — position and weather

sailwx.info

Track history (hours):
 
Tides and Currents Weather Stations Pressure Air Temp Water Temp Dewpoint Dewpoint Depression Visibility Wind Speed Wind Dir Waves Ship Positions

Niko

Last reported at 2017-Dec-11 16:32 UTC. Time now 2017-Dec-14 17:13 UTC.
Position N 40°59' E 028°60'.

Length 77 m; draft 3.1 m.

Type: Tanker. MMSI: 616505000.

Date/timePositionNaut miles runAvg speedWind from/ knotsBaromVisibWave heightAir tempDewpointWater temp
2017-Dec-11 16:32N 40°59' E 028°60'0 8.3
2017-Dec-11 16:31N 40°59' E 028°60'4 7.8
2017-Dec-11 16:00N 40°55' E 029°00'4 7.7
2017-Dec-11 15:28N 40°51' E 029°01'8 0.4
2017-Dec-10 20:49N 40°44' E 028°56'3 8.2
2017-Dec-10 20:28N 40°45' E 028°60'4 8.0
2017-Dec-10 19:56N 40°46' E 029°05'1 2.4
2017-Dec-10 19:26N 40°46' E 029°07'0 0.6
2017-Dec-10 18:56N 40°46' E 029°07'0 0.6
2017-Dec-10 18:20N 40°45' E 029°06'0 0.8
2017-Dec-10 17:50N 40°45' E 029°06'1 0.8
2017-Dec-10 17:08N 40°44' E 029°06'0 0.7
2017-Dec-10 16:50N 40°44' E 029°05'0 0.8
2017-Dec-10 16:26N 40°44' E 029°05'1 0.9
2017-Dec-10 14:59N 40°44' E 029°03'0 1.0
2017-Dec-10 14:29N 40°43' E 029°03'0 1.0
2017-Dec-10 14:00N 40°43' E 029°02'1 0.9
2017-Dec-10 13:27N 40°43' E 029°02'0 1.0
2017-Dec-10 12:59N 40°43' E 029°01'1 1.1
2017-Dec-10 12:28N 40°43' E 029°00'1 1.1
2017-Dec-10 11:43N 40°43' E 028°59'1 3.3
2017-Dec-10 11:29N 40°42' E 028°58'0 0.4
2017-Dec-10 10:59N 40°42' E 028°58'0 0.8
2017-Dec-10 10:29N 40°43' E 028°58'0 0.6
2017-Dec-10 09:51N 40°43' E 028°59'0 0.9
2017-Dec-10 09:29N 40°43' E 028°59'1 1.6
2017-Dec-10 08:56N 40°43' E 028°58'1 0.9
2017-Dec-10 08:20N 40°43' E 028°58'0 0.8
2017-Dec-10 07:49N 40°43' E 028°58'0 0.6
2017-Dec-10 07:28N 40°43' E 028°58'0 1.0
2017-Dec-10 07:00N 40°43' E 028°59'0 0.7
2017-Dec-10 06:30N 40°43' E 028°59'0 0.6
2017-Dec-10 05:53N 40°43' E 028°60'0 0.7
2017-Dec-10 05:30N 40°43' E 029°00'1 1.0
2017-Dec-10 04:50N 40°43' E 029°01'0 0.7
2017-Dec-10 04:27N 40°43' E 029°01'0 0.8
2017-Dec-10 04:00N 40°43' E 029°02'1 1.9
2017-Dec-10 03:25N 40°44' E 029°03'1 1.6
2017-Dec-10 02:57N 40°44' E 029°04'1 2.6
2017-Dec-10 02:30N 40°45' E 029°05'2 3.2
2017-Dec-10 02:00N 40°46' E 029°06'2 3.4
2017-Dec-10 01:30N 40°47' E 029°08'2 4.2
2017-Dec-10 01:00N 40°47' E 029°10'2 4.1
2017-Dec-10 00:30N 40°46' E 029°13'2 3.8
2017-Dec-10 00:00N 40°46' E 029°15'2 4.3
2017-Dec-09 23:30N 40°45' E 029°18'2 4.9
2017-Dec-09 23:00N 40°44' E 029°21'3 6.3
2017-Dec-09 22:29N 40°45' E 029°25'  
2017-Dec-04 01:41N 45°13' E 036°28'2 7.7
2017-Dec-04 01:29N 45°15' E 036°28'4 6.2
2017-Dec-04 00:55N 45°18' E 036°29'3 6.5
2017-Dec-04 00:30N 45°19' E 036°33'3 5.9
2017-Dec-04 00:00N 45°20' E 036°36'3 6.1
2017-Dec-03 23:30N 45°22' E 036°40'4 7.0
2017-Dec-03 23:00N 45°26' E 036°41'4 8.2
2017-Dec-03 22:30N 45°29' E 036°43'  
Track history (hours):
 
Tides and Currents Weather Stations Pressure Air Temp Water Temp Dewpoint Dewpoint Depression Visibility Wind Speed Wind Dir Waves Ship Positions

Niko

Last reported at 2017-Dec-11 16:32 UTC. Time now 2017-Dec-14 17:13 UTC.
Position N 40°59' E 028°60'.

Length 77 m; draft 3.1 m.

Type: Tanker. MMSI: 616505000.

Date/timePositionNaut miles runAvg speedWind from/ knotsBaromVisibWave heightAir tempDewpointWater temp
2017-Dec-11 16:32N 40°59' E 028°60'0 8.3
2017-Dec-11 16:31N 40°59' E 028°60'4 7.8
2017-Dec-11 16:00N 40°55' E 029°00'4 7.7
2017-Dec-11 15:28N 40°51' E 029°01'8 0.4
2017-Dec-10 20:49N 40°44' E 028°56'3 8.2
2017-Dec-10 20:28N 40°45' E 028°60'4 8.0
2017-Dec-10 19:56N 40°46' E 029°05'1 2.4
2017-Dec-10 19:26N 40°46' E 029°07'0 0.6
2017-Dec-10 18:56N 40°46' E 029°07'0 0.6
2017-Dec-10 18:20N 40°45' E 029°06'0 0.8
2017-Dec-10 17:50N 40°45' E 029°06'1 0.8
2017-Dec-10 17:08N 40°44' E 029°06'0 0.7
2017-Dec-10 16:50N 40°44' E 029°05'0 0.8
2017-Dec-10 16:26N 40°44' E 029°05'1 0.9
2017-Dec-10 14:59N 40°44' E 029°03'0 1.0
2017-Dec-10 14:29N 40°43' E 029°03'0 1.0
2017-Dec-10 14:00N 40°43' E 029°02'1 0.9
2017-Dec-10 13:27N 40°43' E 029°02'0 1.0
2017-Dec-10 12:59N 40°43' E 029°01'1 1.1
2017-Dec-10 12:28N 40°43' E 029°00'1 1.1
2017-Dec-10 11:43N 40°43' E 028°59'1 3.3
2017-Dec-10 11:29N 40°42' E 028°58'0 0.4
2017-Dec-10 10:59N 40°42' E 028°58'0 0.8
2017-Dec-10 10:29N 40°43' E 028°58'0 0.6
2017-Dec-10 09:51N 40°43' E 028°59'0 0.9
2017-Dec-10 09:29N 40°43' E 028°59'1 1.6
2017-Dec-10 08:56N 40°43' E 028°58'1 0.9
2017-Dec-10 08:20N 40°43' E 028°58'0 0.8
2017-Dec-10 07:49N 40°43' E 028°58'0 0.6
2017-Dec-10 07:28N 40°43' E 028°58'0 1.0
2017-Dec-10 07:00N 40°43' E 028°59'0 0.7
2017-Dec-10 06:30N 40°43' E 028°59'0 0.6
2017-Dec-10 05:53N 40°43' E 028°60'0 0.7
2017-Dec-10 05:30N 40°43' E 029°00'1 1.0
2017-Dec-10 04:50N 40°43' E 029°01'0 0.7
2017-Dec-10 04:27N 40°43' E 029°01'0 0.8
2017-Dec-10 04:00N 40°43' E 029°02'1 1.9
2017-Dec-10 03:25N 40°44' E 029°03'1 1.6
2017-Dec-10 02:57N 40°44' E 029°04'1 2.6
2017-Dec-10 02:30N 40°45' E 029°05'2 3.2
2017-Dec-10 02:00N 40°46' E 029°06'2 3.4
2017-Dec-10 01:30N 40°47' E 029°08'2 4.2
2017-Dec-10 01:00N 40°47' E 029°10'2 4.1
2017-Dec-10 00:30N 40°46' E 029°13'2 3.8
2017-Dec-10 00:00N 40°46' E 029°15'2 4.3
2017-Dec-09 23:30N 40°45' E 029°18'2 4.9
2017-Dec-09 23:00N 40°44' E 029°21'3 6.3
2017-Dec-09 22:29N 40°45' E 029°25'  
2017-Dec-04 01:41N 45°13' E 036°28'2 7.7
2017-Dec-04 01:29N 45°15' E 036°28'4 6.2
2017-Dec-04 00:55N 45°18' E 036°29'3 6.5
2017-Dec-04 00:30N 45°19' E 036°33'3 5.9
2017-Dec-04 00:00N 45°20' E 036°36'3 6.1
2017-Dec-03 23:30N 45°22' E 036°40'4 7.0
2017-Dec-03 23:00N 45°26' E 036°41'4 8.2
2017-Dec-03 22:30N 45°29' E 036°43'  

Dump ship's entire track history